Terminal Aerodrome Forecast
Issued by NWS

Current Version | Previous Version | Graphics & Text | Print | Product List | Glossary On
Versions: 1 2 3 4 5 6 7 8 9 10 11 12 13 14 15 16 17 18 19 20 21 22 23 24 25 26
000
FTUS41 KRNK 232102 AAA
TAFLWB
TAF AMD
KLWB 232102Z 2321/2418 11004KT P6SM -RA OVC025
     FM232200 14010KT 4SM -RA BR OVC020
      TEMPO 2322/2402 2SM RA BR OVC008
     FM240200 12005KT P6SM OVC050 WS020/15049KT
     FM240800 21003KT 2SM BR OVC004
     FM241200 11007KT 4SM BR OVC010
     FM241500 23004KT P6SM OVC015=

USA.gov is the U.S. government's official web portal to all federal, state and local government web resources and services.